Time;durP1;ratioP1;P1;durP2;ratioP2;P2;SDS_P1;SDS_P2;PMS_P1;PMS_P2;Temp;Humidity;BMP_temperature;BMP_pressure;BME280_temperature;BME280_humidity;BME280_pressure;Samples;Min_cycle;Max_cycle;Signal;HPM_P1;HPM_P2
2023/03/24 00:02:07;;;;;;;6.35;3.03;;;12.90;99.90;;;;;;6286594;28;20049;-80
2023/03/24 00:05:10;;;;;;;5.18;2.85;;;12.80;99.90;;;;;;6287804;28;20071;-79
2023/03/24 00:08:12;;;;;;;2.55;2.35;;;12.90;99.90;;;;;;6292075;28;20055;-78
2023/03/24 00:11:17;;;;;;;3.42;2.55;;;12.70;99.90;;;;;;6291080;28;20071;-79
2023/03/24 00:14:18;;;;;;;3.70;3.33;;;12.80;99.90;;;;;;6289949;28;20347;-79
2023/03/24 00:17:24;;;;;;;4.35;2.30;;;12.70;99.90;;;;;;6249020;28;1113664;-79
2023/03/24 00:20:28;;;;;;;3.33;3.00;;;12.70;99.90;;;;;;6289813;28;20045;-79
2023/03/24 00:23:31;;;;;;;6.18;3.22;;;12.70;99.90;;;;;;6289977;28;20049;-79
2023/03/24 00:26:33;;;;;;;5.93;3.13;;;12.70;99.90;;;;;;6309782;28;20452;-79
2023/03/24 00:29:35;;;;;;;3.40;2.92;;;12.70;99.90;;;;;;6314302;28;20060;-79
2023/03/24 00:32:39;;;;;;;4.35;3.63;;;12.70;99.90;;;;;;6313335;28;20044;-79
2023/03/24 00:35:43;;;;;;;3.72;3.42;;;12.80;99.90;;;;;;6242819;28;20114;-79
2023/03/24 00:38:47;;;;;;;3.47;3.17;;;12.80;99.90;;;;;;6210042;28;20052;-78
2023/03/24 00:41:48;;;;;;;5.85;3.42;;;12.80;99.90;;;;;;6196745;28;20054;-79
2023/03/24 00:44:52;;;;;;;4.32;3.20;;;12.80;99.90;;;;;;6186373;28;20096;-79
2023/03/24 00:47:56;;;;;;;7.57;3.72;;;12.80;99.90;;;;;;6187933;28;20046;-79
2023/03/24 00:51:02;;;;;;;3.85;3.55;;;12.80;99.90;;;;;;6190742;28;20141;-79
2023/03/24 00:54:05;;;;;;;6.60;3.63;;;12.80;99.90;;;;;;6189922;28;20074;-79
2023/03/24 00:57:11;;;;;;;3.58;3.00;;;12.70;99.90;;;;;;6189510;28;20065;-79
2023/03/24 01:00:18;;;;;;;3.85;2.92;;;12.70;99.90;;;;;;6188249;28;20441;-78
2023/03/24 01:03:26;;;;;;;3.58;3.03;;;12.70;99.90;;;;;;6189269;28;20047;-79
2023/03/24 01:06:29;;;;;;;5.30;3.05;;;12.70;99.90;;;;;;6191975;28;20416;-79
2023/03/24 01:09:30;;;;;;;2.92;2.55;;;12.70;99.90;;;;;;6193155;28;20050;-79
2023/03/24 01:12:35;;;;;;;3.50;2.67;;;12.80;99.90;;;;;;6195676;28;20078;-79
2023/03/24 01:15:37;;;;;;;3.33;2.70;;;12.80;99.90;;;;;;6188486;28;20051;-80
2023/03/24 01:18:41;;;;;;;3.08;2.50;;;12.70;99.90;;;;;;6193303;28;20102;-79
2023/03/24 01:21:42;;;;;;;7.47;3.22;;;12.80;99.90;;;;;;6188253;28;20050;-79
2023/03/24 01:24:44;;;;;;;4.97;2.70;;;12.70;99.90;;;;;;6188392;28;20051;-79
2023/03/24 01:27:48;;;;;;;2.83;2.60;;;12.70;99.90;;;;;;6188864;28;20159;-79
2023/03/24 01:30:50;;;;;;;3.45;3.05;;;12.70;99.90;;;;;;6190340;28;20096;-78
2023/03/24 01:33:53;;;;;;;4.65;3.30;;;12.70;99.90;;;;;;6189511;28;20104;-79
2023/03/24 01:36:55;;;;;;;3.50;3.20;;;12.80;99.90;;;;;;6189941;28;20141;-79
2023/03/24 01:39:57;;;;;;;3.33;3.03;;;12.70;99.90;;;;;;6188597;28;20142;-79
2023/03/24 01:42:59;;;;;;;6.38;3.25;;;12.70;99.90;;;;;;6235314;28;20076;-79
2023/03/24 01:46:11;;;;;;;4.88;3.28;;;12.70;99.90;;;;;;6312338;28;20049;-78
2023/03/24 01:49:15;;;;;;;6.60;3.45;;;12.70;99.90;;;;;;6316507;28;20068;-78
2023/03/24 01:52:21;;;;;;;4.03;3.08;;;12.70;99.90;;;;;;6316864;28;20102;-79
2023/03/24 01:55:23;;;;;;;3.42;3.13;;;12.70;99.90;;;;;;6316423;28;20108;-78
2023/03/24 01:58:29;;;;;;;4.43;3.05;;;12.70;99.90;;;;;;6316451;28;20044;-79
2023/03/24 02:01:32;;;;;;;2.95;2.63;;;12.70;99.90;;;;;;6316221;28;20113;-79
2023/03/24 02:04:40;;;;;;;4.63;3.50;;;12.70;99.90;;;;;;6316079;28;20100;-79
2023/03/24 02:07:51;;;;;;;6.47;3.85;;;12.60;99.90;;;;;;6316873;28;20053;-79
2023/03/24 02:10:54;;;;;;;4.32;3.40;;;12.60;99.90;;;;;;6317276;28;20040;-79
2023/03/24 02:13:57;;;;;;;4.82;3.05;;;12.60;99.90;;;;;;6315821;28;20048;-79
2023/03/24 02:17:13;;;;;;;3.70;2.92;;;12.60;99.90;;;;;;6314867;28;20075;-78
2023/03/24 02:20:46;;;;;;;3.78;3.42;;;12.60;99.90;;;;;;6289761;28;20071;-79
2023/03/24 02:24:19;;;;;;;3.25;2.70;;;12.60;99.90;;;;;;6290873;28;20087;-78
2023/03/24 02:27:48;;;;;;;4.32;2.80;;;12.50;99.90;;;;;;6292651;28;20080;-78
2023/03/24 02:31:23;;;;;;;4.07;3.10;;;12.50;99.90;;;;;;6286905;28;20130;-80
2023/03/24 02:34:53;;;;;;;4.45;3.45;;;12.60;99.90;;;;;;6288021;28;20052;-79
2023/03/24 02:38:29;;;;;;;2.80;2.53;;;12.50;99.90;;;;;;6287351;28;20047;-79
2023/03/24 02:41:39;;;;;;;3.10;2.80;;;12.50;99.90;;;;;;6284182;28;20048;-79
2023/03/24 02:44:46;;;;;;;3.40;3.05;;;12.50;99.90;;;;;;6264446;28;20069;-79
2023/03/24 02:48:00;;;;;;;3.75;2.97;;;12.50;99.90;;;;;;6181836;28;20074;-78
2023/03/24 02:51:09;;;;;;;3.95;3.58;;;12.50;99.90;;;;;;6179812;28;20106;-79
2023/03/24 02:54:16;;;;;;;2.92;2.72;;;12.50;99.90;;;;;;6178884;28;20448;-79
2023/03/24 02:57:24;;;;;;;2.63;2.42;;;12.40;99.90;;;;;;6178425;28;20122;-80
2023/03/24 03:00:31;;;;;;;3.15;2.85;;;12.40;99.90;;;;;;6178275;28;20046;-78
2023/03/24 03:03:40;;;;;;;3.60;3.30;;;12.40;99.90;;;;;;6178852;28;20139;-79
2023/03/24 03:06:46;;;;;;;4.05;3.03;;;12.30;99.90;;;;;;6178961;28;20406;-78
2023/03/24 03:09:53;;;;;;;13.13;6.22;;;12.30;99.90;;;;;;6178625;28;20102;-78
2023/03/24 03:12:59;;;;;;;4.30;3.05;;;12.30;99.90;;;;;;6179376;28;20125;-78
2023/03/24 03:16:06;;;;;;;3.53;3.15;;;12.30;99.90;;;;;;6177446;28;20180;-79
2023/03/24 03:19:16;;;;;;;5.40;3.85;;;12.40;99.90;;;;;;6178888;28;20153;-79
2023/03/24 03:22:23;;;;;;;3.58;3.28;;;12.40;99.90;;;;;;6179533;28;20047;-79
2023/03/24 03:25:28;;;;;;;5.95;4.07;;;12.40;99.90;;;;;;6179060;28;20125;-78
2023/03/24 03:28:33;;;;;;;6.95;3.70;;;12.40;99.90;;;;;;6178258;28;20058;-79
2023/03/24 03:31:40;;;;;;;3.90;3.40;;;12.40;99.90;;;;;;6179922;28;20460;-79
2023/03/24 03:34:46;;;;;;;4.65;3.85;;;12.40;99.90;;;;;;6176489;28;20054;-79
2023/03/24 03:37:53;;;;;;;3.80;3.38;;;12.50;99.90;;;;;;6178480;28;20429;-79
2023/03/24 03:40:58;;;;;;;5.37;3.27;;;12.50;99.90;;;;;;6177978;28;20035;-78
2023/03/24 03:44:01;;;;;;;5.75;3.75;;;12.50;99.90;;;;;;6178003;28;20043;-79
2023/03/24 03:47:04;;;;;;;4.82;3.72;;;12.50;99.90;;;;;;6178601;28;20093;-78
2023/03/24 03:50:08;;;;;;;4.07;3.67;;;12.50;99.90;;;;;;6177105;28;20058;-79
2023/03/24 03:53:13;;;;;;;3.97;2.92;;;12.50;99.90;;;;;;6169385;28;20046;-77
2023/03/24 03:56:17;;;;;;;4.25;3.90;;;12.60;99.90;;;;;;6178200;28;20130;-79
2023/03/24 03:59:29;;;;;;;4.07;3.65;;;12.60;99.90;;;;;;6178546;28;20050;-79
2023/03/24 04:02:45;;;;;;;4.38;3.75;;;12.80;99.90;;;;;;6179116;28;20563;-79
2023/03/24 04:05:53;;;;;;;4.47;3.10;;;12.90;99.90;;;;;;6178537;28;20051;-79
2023/03/24 04:09:02;;;;;;;4.83;3.73;;;13.00;99.90;;;;;;6178880;28;20110;-78
2023/03/24 04:12:37;;;;;;;3.42;2.88;;;13.10;99.90;;;;;;6178069;28;20043;-79
2023/03/24 04:15:46;;;;;;;3.97;3.53;;;13.30;99.90;;;;;;6179230;28;20051;-79
2023/03/24 04:18:57;;;;;;;3.42;3.13;;;13.40;99.90;;;;;;6179137;28;20059;-80
2023/03/24 04:22:12;;;;;;;4.18;3.67;;;13.40;99.90;;;;;;6178795;28;20043;-79
2023/03/24 04:25:18;;;;;;;3.00;2.75;;;13.50;99.90;;;;;;6174681;28;20053;-79
2023/03/24 04:28:25;;;;;;;5.57;3.45;;;13.60;99.90;;;;;;6269394;28;20051;-79
2023/03/24 04:31:34;;;;;;;9.38;4.25;;;13.70;99.90;;;;;;6301832;28;20055;-79
2023/03/24 04:34:39;;;;;;;4.95;4.15;;;13.80;99.90;;;;;;6299969;28;20400;-78
2023/03/24 04:37:42;;;;;;;7.35;4.65;;;13.90;99.90;;;;;;6301171;28;20048;-78
2023/03/24 04:40:48;;;;;;;4.80;3.70;;;13.80;99.90;;;;;;6303166;28;20224;-79
2023/03/24 04:43:50;;;;;;;9.00;4.78;;;13.50;99.90;;;;;;6306168;28;20399;-78
2023/03/24 04:46:56;;;;;;;6.07;5.47;;;13.30;99.90;;;;;;6306241;28;20049;-77
2023/03/24 04:50:01;;;;;;;9.45;5.03;;;13.00;99.90;;;;;;6299998;28;20037;-79
2023/03/24 04:53:04;;;;;;;5.25;4.80;;;12.90;99.90;;;;;;6180352;28;20051;-78
2023/03/24 04:56:34;;;;;;;6.35;4.90;;;12.80;99.90;;;;;;6177604;28;20049;-79
2023/03/24 04:59:36;;;;;;;5.85;5.35;;;12.70;99.90;;;;;;6178345;28;20061;-78
2023/03/24 05:02:39;;;;;;;6.65;5.88;;;12.70;99.90;;;;;;6177765;28;20054;-80
2023/03/24 05:05:41;;;;;;;6.60;6.00;;;12.60;99.90;;;;;;6176506;28;20050;-81
2023/03/24 05:08:43;;;;;;;6.85;5.57;;;12.60;99.90;;;;;;6177431;28;20053;-79
2023/03/24 05:11:45;;;;;;;7.38;5.40;;;12.60;99.90;;;;;;6176909;28;20062;-80
2023/03/24 05:14:47;;;;;;;5.78;5.20;;;12.60;99.90;;;;;;6177338;28;20101;-80
2023/03/24 05:17:51;;;;;;;6.43;5.75;;;12.60;99.90;;;;;;6176640;28;20421;-81
2023/03/24 05:20:53;;;;;;;8.07;5.20;;;12.60;99.90;;;;;;6178004;28;20131;-81
2023/03/24 05:23:55;;;;;;;5.40;5.00;;;12.60;99.90;;;;;;6177090;28;20077;-80
2023/03/24 05:26:56;;;;;;;7.60;5.22;;;12.60;99.90;;;;;;6176360;28;20055;-79
2023/03/24 05:29:58;;;;;;;6.20;5.60;;;12.60;99.90;;;;;;6175626;28;20051;-80
2023/03/24 05:33:01;;;;;;;7.68;5.32;;;12.60;99.90;;;;;;6179900;28;20531;-79
2023/03/24 05:36:03;;;;;;;7.10;5.20;;;12.60;99.90;;;;;;6178887;28;20409;-80
2023/03/24 05:39:05;;;;;;;6.35;5.72;;;12.60;99.90;;;;;;6179115;28;20058;-79
2023/03/24 05:42:07;;;;;;;12.23;6.53;;;12.60;99.90;;;;;;6178699;28;20053;-80
2023/03/24 05:45:10;;;;;;;8.70;7.65;;;12.60;99.90;;;;;;6179180;28;20057;-80
2023/03/24 05:48:13;;;;;;;7.75;6.95;;;12.60;99.90;;;;;;6179118;28;20053;-80
2023/03/24 05:51:15;;;;;;;8.55;7.63;;;12.60;99.90;;;;;;6178457;28;20053;-78
2023/03/24 05:54:17;;;;;;;7.20;6.50;;;12.60;99.90;;;;;;6178333;28;20065;-80
2023/03/24 05:57:20;;;;;;;7.60;6.57;;;12.70;99.90;;;;;;6178356;28;20055;-80
2023/03/24 06:00:22;;;;;;;7.93;7.13;;;12.70;99.90;;;;;;6177282;28;20046;-81
2023/03/24 06:03:25;;;;;;;11.25;8.88;;;12.70;99.90;;;;;;6178218;28;20046;-80
2023/03/24 06:06:27;;;;;;;8.02;7.22;;;12.70;99.90;;;;;;6177665;28;20051;-80
2023/03/24 06:09:34;;;;;;;10.95;7.85;;;12.70;99.90;;;;;;6178178;28;20173;-81
2023/03/24 06:12:36;;;;;;;9.48;8.18;;;12.80;99.90;;;;;;6176279;28;20046;-81
2023/03/24 06:15:41;;;;;;;7.13;6.43;;;12.80;99.90;;;;;;6176101;28;20059;-80
2023/03/24 06:18:51;;;;;;;6.57;6.00;;;12.80;99.90;;;;;;6180573;28;20265;-81
2023/03/24 06:21:53;;;;;;;7.45;6.75;;;12.80;99.90;;;;;;6181411;28;20043;-80
2023/03/24 06:24:57;;;;;;;6.68;6.07;;;12.90;99.90;;;;;;6183737;28;20050;-79
2023/03/24 06:28:02;;;;;;;11.32;6.93;;;12.80;99.90;;;;;;6262328;28;20040;-80
2023/03/24 06:31:05;;;;;;;7.97;6.63;;;12.90;99.90;;;;;;6309228;28;20112;-81
2023/03/24 06:34:08;;;;;;;7.68;5.90;;;12.80;99.90;;;;;;6307835;28;20048;-82
2023/03/24 06:37:09;;;;;;;9.20;6.75;;;12.90;99.90;;;;;;6307697;28;20044;-81
2023/03/24 06:40:15;;;;;;;6.65;5.32;;;12.80;99.90;;;;;;6307520;28;20051;-80
2023/03/24 06:43:16;;;;;;;7.75;6.45;;;12.80;99.90;;;;;;6307658;28;20051;-82
2023/03/24 06:46:18;;;;;;;10.32;9.32;;;12.70;99.90;;;;;;6306948;28;20040;-81
2023/03/24 06:49:21;;;;;;;7.43;5.45;;;12.70;99.90;;;;;;6309108;28;20028;-81
2023/03/24 06:52:23;;;;;;;6.00;5.43;;;12.70;99.90;;;;;;6275594;28;20042;-80
2023/03/24 06:55:26;;;;;;;8.52;5.68;;;12.70;99.90;;;;;;6183963;28;20054;-78
2023/03/24 06:58:28;;;;;;;7.88;4.70;;;12.60;99.90;;;;;;6184546;28;20054;-80
2023/03/24 07:01:30;;;;;;;6.70;5.90;;;12.60;99.90;;;;;;6183882;28;20061;-80
2023/03/24 07:04:35;;;;;;;7.30;6.63;;;12.60;99.90;;;;;;6182241;28;20055;-81
2023/03/24 07:07:37;;;;;;;6.13;5.22;;;12.60;99.90;;;;;;6257241;28;20052;-81
2023/03/24 07:10:39;;;;;;;6.70;6.13;;;12.60;99.90;;;;;;6312055;28;20120;-80
2023/03/24 07:13:41;;;;;;;8.95;6.03;;;12.60;99.90;;;;;;6315526;28;20495;-80
2023/03/24 07:16:43;;;;;;;7.40;6.32;;;12.50;99.90;;;;;;6316342;28;20052;-80
2023/03/24 07:19:46;;;;;;;6.65;5.82;;;12.50;99.90;;;;;;6311563;28;20388;-81
2023/03/24 07:22:47;;;;;;;8.05;5.80;;;12.50;99.90;;;;;;6306794;28;20098;-81
2023/03/24 07:25:49;;;;;;;5.90;5.18;;;12.50;99.90;;;;;;6311464;28;20048;-80
2023/03/24 07:28:51;;;;;;;7.72;5.68;;;12.50;99.90;;;;;;6268753;28;20114;-80
2023/03/24 07:31:57;;;;;;;7.68;6.82;;;12.50;99.90;;;;;;6295711;28;20048;-82
2023/03/24 07:35:01;;;;;;;10.05;6.80;;;12.40;99.90;;;;;;6310268;28;20052;-78
2023/03/24 07:38:03;;;;;;;9.38;5.88;;;12.40;99.90;;;;;;6308280;28;20062;-78
2023/03/24 07:41:05;;;;;;;7.93;6.40;;;12.50;99.90;;;;;;6302106;28;20052;-78
2023/03/24 07:44:07;;;;;;;7.30;6.13;;;12.50;99.90;;;;;;6302774;28;20568;-79
2023/03/24 07:47:10;;;;;;;10.60;6.00;;;12.50;99.90;;;;;;6291619;28;20502;-79
2023/03/24 07:50:14;;;;;;;8.20;6.80;;;12.50;99.90;;;;;;6295331;28;20426;-81
2023/03/24 07:53:18;;;;;;;4.40;4.00;;;12.50;99.90;;;;;;6293400;28;20044;-80
2023/03/24 07:56:20;;;;;;;5.40;4.90;;;12.60;99.90;;;;;;6294353;28;20045;-81
2023/03/24 07:59:22;;;;;;;5.57;5.07;;;12.60;99.90;;;;;;6295183;28;20052;-81
2023/03/24 08:02:23;;;;;;;4.68;3.83;;;12.70;99.90;;;;;;6295453;28;20395;-77
2023/03/24 08:05:29;;;;;;;4.60;4.20;;;12.80;99.90;;;;;;6295459;28;20055;-79
2023/03/24 08:08:31;;;;;;;5.07;4.32;;;12.80;99.90;;;;;;6294917;28;20059;-79
2023/03/24 08:11:33;;;;;;;5.80;5.30;;;12.80;99.90;;;;;;6298624;28;20040;-80
2023/03/24 08:14:35;;;;;;;3.63;3.28;;;12.80;99.90;;;;;;6294538;28;20048;-79
2023/03/24 08:17:37;;;;;;;4.70;4.30;;;12.90;99.90;;;;;;6294729;28;20422;-82
2023/03/24 08:20:40;;;;;;;4.93;3.97;;;12.90;99.90;;;;;;6295702;28;20058;-82
2023/03/24 08:23:42;;;;;;;5.88;4.18;;;13.00;99.90;;;;;;6296072;28;20057;-79
2023/03/24 08:26:45;;;;;;;3.42;3.13;;;13.00;99.90;;;;;;6295718;28;20498;-80
2023/03/24 08:29:47;;;;;;;3.47;3.03;;;13.00;99.90;;;;;;6296084;28;20041;-80
2023/03/24 08:32:51;;;;;;;4.45;3.10;;;13.20;99.90;;;;;;6294227;28;20052;-78
2023/03/24 08:35:56;;;;;;;4.50;4.10;;;13.20;99.90;;;;;;6296543;28;20106;-80
2023/03/24 08:38:58;;;;;;;3.58;3.28;;;13.20;99.90;;;;;;6294215;28;20048;-82
2023/03/24 08:42:00;;;;;;;3.83;3.17;;;13.20;99.90;;;;;;6296002;28;20505;-80
2023/03/24 08:45:02;;;;;;;5.03;3.90;;;13.20;99.90;;;;;;6291535;28;20526;-79
2023/03/24 08:48:06;;;;;;;4.10;2.78;;;13.30;99.90;;;;;;6286811;28;20529;-78
2023/03/24 08:51:13;;;;;;;2.67;2.47;;;13.40;99.90;;;;;;6290999;28;20064;-79
2023/03/24 08:54:15;;;;;;;3.13;2.78;;;13.40;99.90;;;;;;6287786;28;20562;-81
2023/03/24 08:57:17;;;;;;;2.72;2.53;;;13.50;99.90;;;;;;6287303;28;20037;-80
2023/03/24 09:00:20;;;;;;;4.80;4.40;;;13.50;99.90;;;;;;6287066;28;20057;-79
2023/03/24 09:03:22;;;;;;;3.00;2.75;;;13.60;99.90;;;;;;6287020;28;20047;-80
2023/03/24 09:06:26;;;;;;;3.85;3.42;;;13.70;99.90;;;;;;6292255;28;20467;-79
2023/03/24 09:09:28;;;;;;;2.97;2.53;;;13.70;99.90;;;;;;6286549;28;20079;-80
2023/03/24 09:12:29;;;;;;;6.53;5.93;;;13.70;99.90;;;;;;6287729;28;20048;-79
2023/03/24 09:15:32;;;;;;;4.70;3.10;;;13.70;99.90;;;;;;6290665;28;20060;-79
2023/03/24 09:18:33;;;;;;;2.53;2.33;;;13.80;99.90;;;;;;6287527;28;20048;-80
2023/03/24 09:21:37;;;;;;;5.47;2.95;;;13.90;99.90;;;;;;6288563;28;20048;-80
2023/03/24 09:24:39;;;;;;;2.78;2.20;;;13.90;99.90;;;;;;6286889;28;20045;-79
2023/03/24 09:27:41;;;;;;;5.13;3.38;;;14.00;99.90;;;;;;6268207;28;20054;-80
2023/03/24 09:30:43;;;;;;;4.10;3.38;;;14.00;99.90;;;;;;6276395;28;20063;-80
2023/03/24 09:33:45;;;;;;;2.55;2.35;;;14.00;99.90;;;;;;6290786;28;20681;-80
2023/03/24 09:36:49;;;;;;;5.07;3.22;;;14.00;99.90;;;;;;6292079;28;20166;-79
2023/03/24 09:39:53;;;;;;;2.58;2.38;;;14.00;99.90;;;;;;6286421;28;20426;-80
2023/03/24 09:43:01;;;;;;;3.33;2.28;;;14.10;99.90;;;;;;6287355;28;20040;-79
2023/03/24 09:46:06;;;;;;;2.20;2.00;;;14.10;99.90;;;;;;6282231;28;20051;-80
2023/03/24 09:49:15;;;;;;;2.17;2.05;;;14.20;99.90;;;;;;6289051;28;20048;-80
2023/03/24 09:52:24;;;;;;;2.33;2.15;;;14.30;99.90;;;;;;6288670;28;20072;-80
2023/03/24 09:55:28;;;;;;;1.65;1.52;;;14.40;99.90;;;;;;6286196;28;20278;-81
2023/03/24 09:58:32;;;;;;;2.97;1.98;;;14.50;99.90;;;;;;6241127;28;20407;-81
2023/03/24 10:01:35;;;;;;;4.47;1.92;;;14.40;99.90;;;;;;6285331;28;20052;-82
2023/03/24 10:04:36;;;;;;;1.67;1.58;;;14.40;99.90;;;;;;6285314;28;20071;-81
2023/03/24 10:07:46;;;;;;;2.35;2.13;;;14.30;99.90;;;;;;6290605;28;20045;-80
2023/03/24 10:10:57;;;;;;;1.83;1.70;;;14.30;99.90;;;;;;6291413;28;20053;-82
2023/03/24 10:14:30;;;;;;;2.47;1.83;;;14.40;99.90;;;;;;6296961;28;20694;-80
2023/03/24 10:17:40;;;;;;;6.30;1.98;;;14.40;99.90;;;;;;6275343;28;20075;-81
2023/03/24 10:20:48;;;;;;;1.58;1.48;;;14.70;99.90;;;;;;6291217;28;20052;-81
2023/03/24 10:23:59;;;;;;;1.60;1.50;;;14.70;99.90;;;;;;6294345;28;20056;-82
2023/03/24 10:27:06;;;;;;;1.73;1.60;;;14.70;99.90;;;;;;6299504;28;20071;-82
2023/03/24 10:30:15;;;;;;;2.20;1.77;;;14.90;99.90;;;;;;6298675;28;20044;-84
2023/03/24 10:33:18;;;;;;;1.67;1.58;;;15.00;99.90;;;;;;6295010;28;20044;-82
2023/03/24 10:36:22;;;;;;;1.85;1.65;;;15.20;99.90;;;;;;6300240;28;20049;-82
2023/03/24 10:39:25;;;;;;;1.90;1.80;;;15.40;99.90;;;;;;6293960;28;20056;-84
2023/03/24 10:42:31;;;;;;;2.13;1.40;;;15.60;99.90;;;;;;6294239;28;20808;-82
2023/03/24 10:45:36;;;;;;;1.58;1.48;;;15.80;99.90;;;;;;6292881;28;20044;-82
2023/03/24 10:48:44;;;;;;;6.05;1.92;;;16.00;99.90;;;;;;6295629;28;20047;-82
2023/03/24 10:51:48;;;;;;;7.40;2.17;;;16.20;99.90;;;;;;6293711;28;20044;-82
2023/03/24 10:55:02;;;;;;;1.90;1.70;;;16.40;99.90;;;;;;6296009;28;20118;-82
2023/03/24 10:58:10;;;;;;;1.98;1.27;;;16.40;99.90;;;;;;6295021;28;20051;-81
2023/03/24 11:01:23;;;;;;;1.30;1.13;;;16.50;99.90;;;;;;6297033;28;20052;-82
2023/03/24 11:04:26;;;;;;;1.48;1.38;;;16.60;99.90;;;;;;6297301;28;20056;-83
2023/03/24 11:07:32;;;;;;;3.40;1.83;;;16.50;99.90;;;;;;6299243;28;20048;-85
2023/03/24 11:10:35;;;;;;;2.28;1.30;;;16.30;99.90;;;;;;6298999;28;20056;-84
2023/03/24 11:13:36;;;;;;;1.58;1.48;;;16.10;99.90;;;;;;6299339;28;20048;-82
2023/03/24 11:16:43;;;;;;;2.60;1.50;;;16.10;99.90;;;;;;6297017;28;20040;-82
2023/03/24 11:19:52;;;;;;;1.60;1.50;;;16.10;99.90;;;;;;6300701;28;20064;-82
2023/03/24 11:23:01;;;;;;;1.58;1.30;;;16.10;99.90;;;;;;6298878;28;20415;-80
2023/03/24 11:26:08;;;;;;;1.63;1.50;;;16.10;99.90;;;;;;6293983;28;20056;-82
2023/03/24 11:29:15;;;;;;;1.70;1.60;;;16.00;99.90;;;;;;6292566;28;20051;-81
2023/03/24 11:32:25;;;;;;;1.52;1.42;;;15.90;99.90;;;;;;6293562;28;20044;-76
2023/03/24 11:35:30;;;;;;;2.38;1.20;;;15.80;99.90;;;;;;6288980;28;20049;-81
2023/03/24 11:38:34;;;;;;;1.40;1.27;;;15.80;99.90;;;;;;6290312;28;20048;-83
2023/03/24 11:41:39;;;;;;;2.25;1.17;;;15.80;99.90;;;;;;6291045;28;20104;-80
2023/03/24 11:44:50;;;;;;;3.42;1.58;;;15.80;99.90;;;;;;6291292;28;20419;-81
2023/03/24 11:47:53;;;;;;;3.97;1.60;;;15.80;99.90;;;;;;6288979;28;20044;-83
2023/03/24 11:50:58;;;;;;;2.00;1.77;;;15.80;99.90;;;;;;6289840;28;20040;-80
2023/03/24 11:54:03;;;;;;;2.55;1.58;;;15.70;99.90;;;;;;6295110;28;20049;-82
2023/03/24 11:57:12;;;;;;;1.80;0.70;;;15.60;99.90;;;;;;6292512;28;20565;-83
2023/03/24 12:00:19;;;;;;;3.30;1.50;;;15.30;99.90;;;;;;6293113;28;20044;-81
2023/03/24 12:03:48;;;;;;;3.20;1.42;;;14.50;99.90;;;;;;6297886;28;20053;-80
2023/03/24 12:07:01;;;;;;;14.57;1.80;;;13.70;99.90;;;;;;6292982;28;20052;-79
2023/03/24 12:10:13;;;;;;;1.75;1.45;;;12.80;99.90;;;;;;6291814;28;20053;-81
2023/03/24 12:13:19;;;;;;;5.53;2.22;;;12.20;99.90;;;;;;6294722;28;20049;-81
2023/03/24 12:16:34;;;;;;;6.35;4.28;;;11.80;99.90;;;;;;6293182;28;20410;-80
2023/03/24 12:19:50;;;;;;;41.70;30.05;;;11.50;99.90;;;;;;6274920;28;20041;-81
2023/03/24 12:23:00;;;;;;;39.03;22.50;;;11.30;99.90;;;;;;6295665;28;20047;-83
2023/03/24 12:26:20;;;;;;;51.70;28.13;;;11.30;99.90;;;;;;6253735;28;20051;-80
2023/03/24 12:29:51;;;;;;;15.73;9.43;;;11.30;99.90;;;;;;6261760;28;20041;-79
2023/03/24 12:33:27;;;;;;;34.35;19.50;;;11.30;99.90;;;;;;6289428;28;20037;-81
2023/03/24 12:36:45;;;;;;;5.78;3.50;;;11.20;99.90;;;;;;6289833;28;20059;-81
2023/03/24 12:39:50;;;;;;;;;;;11.10;99.90;;;;;;6285632;28;20547;-80
2023/03/24 12:43:01;;;;;;;9.20;3.40;;;11.10;99.90;;;;;;6290433;28;19927;-79
2023/03/24 12:46:12;;;;;;;5.68;2.17;;;11.10;99.90;;;;;;6289077;28;20045;-81
2023/03/24 12:49:30;;;;;;;23.75;13.77;;;11.10;99.90;;;;;;6286969;28;20048;-81
2023/03/24 12:52:48;;;;;;;6.55;2.33;;;11.00;99.90;;;;;;6287642;28;20525;-80
2023/03/24 12:55:54;;;;;;;7.93;1.87;;;11.00;99.90;;;;;;6288811;28;20053;-80
2023/03/24 13:00:00;;;;;;;5.82;3.10;;;10.90;99.90;;;;;;6291835;28;20318;-82
2023/03/24 13:03:12;;;;;;;4.05;2.20;;;10.80;99.90;;;;;;6291011;28;20115;-80
2023/03/24 13:06:20;;;;;;;9.48;2.50;;;10.80;99.90;;;;;;6297263;28;20053;-80
2023/03/24 13:09:35;;;;;;;;;;;10.90;99.90;;;;;;6299609;28;20056;-81
2023/03/24 13:12:43;;;;;;;6.30;1.33;;;11.00;99.90;;;;;;6297750;28;20003;-81
2023/03/24 13:15:48;;;;;;;2.15;1.13;;;11.10;99.90;;;;;;6295785;28;20044;-81
2023/03/24 13:18:54;;;;;;;8.20;2.10;;;11.20;99.90;;;;;;6296813;28;20052;-81
2023/03/24 13:21:56;;;;;;;4.50;1.63;;;11.30;99.90;;;;;;6295615;28;20123;-79
2023/03/24 13:24:59;;;;;;;3.92;2.28;;;11.40;99.90;;;;;;6296472;28;20044;-81
2023/03/24 13:28:10;;;;;;;4.40;2.92;;;11.50;99.90;;;;;;6296700;28;20446;-80
2023/03/24 13:31:13;;;;;;;3.03;1.90;;;11.60;99.90;;;;;;6298217;28;20061;-80
2023/03/24 13:34:25;;;;;;;2.38;1.02;;;11.70;99.90;;;;;;6300279;28;20059;-81
2023/03/24 13:37:32;;;;;;;5.88;1.35;;;11.80;99.90;;;;;;6299964;28;20052;-81
2023/03/24 13:40:39;;;;;;;5.27;1.83;;;11.90;99.90;;;;;;6301471;28;20064;-81
2023/03/24 13:43:48;;;;;;;7.88;2.47;;;12.00;99.90;;;;;;6299894;28;20044;-80
2023/03/24 13:47:11;;;;;;;4.32;1.80;;;12.20;99.90;;;;;;6297242;28;20059;-80
2023/03/24 13:50:16;;;;;;;11.70;6.75;;;12.40;99.90;;;;;;6296513;28;20165;-81
2023/03/24 13:53:18;;;;;;;4.45;2.08;;;12.50;99.90;;;;;;6298535;28;20139;-82
2023/03/24 13:56:26;;;;;;;3.53;2.13;;;12.60;99.90;;;;;;6299408;28;20131;-82
2023/03/24 13:59:30;;;;;;;2.30;1.73;;;12.70;99.90;;;;;;6298912;28;20525;-82
2023/03/24 14:02:45;;;;;;;5.20;1.60;;;12.90;99.90;;;;;;6299857;28;20068;-82
2023/03/24 14:05:59;;;;;;;10.00;5.57;;;13.10;99.90;;;;;;6297279;28;20426;-82
2023/03/24 14:09:05;;;;;;;6.70;1.75;;;13.30;99.90;;;;;;6299588;28;20056;-82
2023/03/24 14:12:19;;;;;;;2.47;1.00;;;13.30;99.90;;;;;;6249061;28;20056;-80
2023/03/24 14:15:25;;;;;;;4.53;1.55;;;13.20;99.90;;;;;;6297443;28;20095;-81
2023/03/24 14:18:42;;;;;;;4.25;1.88;;;13.20;99.90;;;;;;6291322;28;20057;-82
2023/03/24 14:21:52;;;;;;;2.70;1.67;;;13.30;99.90;;;;;;6295515;28;20044;-81
2023/03/24 14:24:59;;;;;;;21.50;15.48;;;13.30;99.90;;;;;;6295149;28;20102;-81
2023/03/24 14:28:21;;;;;;;4.50;1.98;;;13.40;99.90;;;;;;6294944;28;20149;-82
2023/03/24 14:31:27;;;;;;;3.92;1.83;;;13.60;99.90;;;;;;6292488;28;20053;-80
2023/03/24 14:37:58;;;;;;;3.55;1.63;;;13.80;99.90;;;;;;6272009;28;20049;-83
2023/03/24 14:45:00;;;;;;;4.82;1.98;;;13.90;99.90;;;;;;6287033;28;20135;-80
2023/03/24 14:48:24;;;;;;;1.20;0.70;;;14.00;99.90;;;;;;6293763;28;20052;-82
2023/03/24 14:51:36;;;;;;;1.25;1.13;;;14.00;99.90;;;;;;6295365;28;20075;-81
2023/03/24 14:54:42;;;;;;;3.35;0.85;;;13.90;99.90;;;;;;6296694;28;20044;-83
2023/03/24 14:57:47;;;;;;;2.03;0.98;;;13.90;99.90;;;;;;6295745;28;20098;-83
2023/03/24 15:00:55;;;;;;;3.28;0.95;;;13.90;99.90;;;;;;6296285;28;20072;-82
2023/03/24 15:04:03;;;;;;;1.83;0.98;;;13.80;99.90;;;;;;6295836;28;20059;-81
2023/03/24 15:07:06;;;;;;;1.45;1.00;;;13.80;99.90;;;;;;6252999;28;21573;-81
2023/03/24 15:10:22;;;;;;;1.00;0.98;;;13.80;99.90;;;;;;6295879;28;20045;-81
2023/03/24 15:13:35;;;;;;;4.03;0.77;;;13.80;99.90;;;;;;6293536;28;20036;-80
2023/03/24 15:16:51;;;;;;;0.95;0.63;;;13.80;99.90;;;;;;6293270;28;20048;-82
2023/03/24 15:19:57;;;;;;;1.48;1.25;;;13.90;99.90;;;;;;6295717;28;20056;-81
2023/03/24 15:23:05;;;;;;;1.38;1.27;;;13.80;99.90;;;;;;6293738;28;20058;-83
2023/03/24 15:26:13;;;;;;;1.15;0.98;;;13.80;99.90;;;;;;6293182;28;21761;-83
2023/03/24 15:29:15;;;;;;;1.45;1.20;;;13.90;99.90;;;;;;6293004;28;20060;-82
2023/03/24 15:32:19;;;;;;;2.28;1.13;;;14.00;99.90;;;;;;6292758;28;20040;-81
2023/03/24 15:35:22;;;;;;;1.27;1.05;;;14.00;99.90;;;;;;6293369;28;20061;-82
2023/03/24 15:38:29;;;;;;;1.58;1.45;;;14.00;99.90;;;;;;6292790;28;20127;-82
2023/03/24 15:41:32;;;;;;;1.20;1.10;;;13.90;99.90;;;;;;6292476;28;20501;-81
2023/03/24 15:44:38;;;;;;;1.40;1.30;;;13.90;99.90;;;;;;6290502;28;20052;-82
2023/03/24 15:47:41;;;;;;;1.27;1.02;;;13.90;99.90;;;;;;6293239;28;20068;-82
2023/03/24 15:50:57;;;;;;;1.15;0.77;;;14.00;99.90;;;;;;6293862;28;20055;-82
2023/03/24 15:53:59;;;;;;;3.10;1.67;;;14.10;99.90;;;;;;6291443;28;20078;-81
2023/03/24 15:57:21;;;;;;;1.55;1.45;;;14.20;99.90;;;;;;6289739;28;20450;-81
2023/03/24 16:00:25;;;;;;;2.33;0.95;;;14.20;99.90;;;;;;6255722;28;20067;-79
2023/03/24 16:03:28;;;;;;;1.05;1.05;;;14.40;99.90;;;;;;6294467;28;20064;-79
2023/03/24 16:06:34;;;;;;;4.07;1.48;;;14.40;99.90;;;;;;6288841;28;20047;-81
2023/03/24 16:09:39;;;;;;;1.52;0.95;;;14.40;99.90;;;;;;6296661;28;20037;-81
2023/03/24 16:16:20;;;;;;;1.17;1.08;;;14.50;99.90;;;;;;6290775;28;20112;-83
2023/03/24 16:34:20;;;;;;;0.57;0.57;;;14.50;99.90;;;;;;6272767;28;20032;-82
2023/03/24 16:37:26;;;;;;;2.15;1.05;;;14.40;99.90;;;;;;6296138;28;20047;-84